Ash, North Carolina
Current Conditions -  °F | °C
As of 9:53 PM on Sunday 23 Nov 2014 (Local Time) from KCRE Reporting Station
Thunderstorm Thunderstorm  
Wind Chill: 69°   Ceiling: 1000
Heat Index: 69°   Visibility: 0.75mi
Dew Point: 67°   Wind: 16mph
Humidity: 93%   Direction: 160°SSE
Pressure: 29.85"   Gusts: 23mph
Location:  34.04°N, 78.52°W
Report Text: KCRE 240253Z AUTO 16014G20KT 3/4SM +TSRA BR BKN010 BKN018 OVC023 21/19 A2985 RMK AO1 LTG DSNT ALQDS RAE09B20 TSB40 SLP109 P0080 60081 T02060194 55020
Loading
Personal Weather Stations






























Interactive Weather Map New forecast layout! Learn more

10-Day Weather Forecast

Advertisements
Track Severe Weather on mobile